Time;durP1;ratioP1;P1;durP2;ratioP2;P2;SDS_P1;SDS_P2;PMS_P1;PMS_P2;Temp;Humidity;BMP_temperature;BMP_pressure;BME280_temperature;BME280_humidity;BME280_pressure;Samples;Min_cycle;Max_cycle;Signal;HPM_P1;HPM_P2
2024/02/20 00:02:18;;;;;;;;;17.67;15.00;;;;;11.61;100.00;102459.44;6285136;22;44942;-88
2024/02/20 00:04:44;;;;;;;;;18.33;12.00;;;;;11.61;100.00;102462.09;6283762;22;45496;-86
2024/02/20 00:07:09;;;;;;;;;19.00;16.00;;;;;11.64;100.00;102458.63;6311867;22;45461;-87
2024/02/20 00:09:36;;;;;;;;;20.00;19.33;;;;;11.62;100.00;102463.00;6285255;22;45365;-88
2024/02/20 00:12:02;;;;;;;;;18.33;15.67;;;;;11.55;100.00;102461.88;6285582;22;45346;-88
2024/02/20 00:14:27;;;;;;;;;23.67;18.00;;;;;11.58;100.00;102466.41;6285445;22;45425;-87
2024/02/20 00:16:54;;;;;;;;;17.00;14.00;;;;;11.56;100.00;102462.78;6311765;22;48171;-86
2024/02/20 00:19:20;;;;;;;;;19.33;16.67;;;;;11.54;100.00;102448.50;6285194;22;45310;-85
2024/02/20 00:21:46;;;;;;;;;17.00;14.67;;;;;11.56;100.00;102457.44;6284854;22;45402;-90
2024/02/20 00:24:12;;;;;;;;;16.67;16.67;;;;;11.54;100.00;102451.16;6284182;22;45343;-88
2024/02/20 00:26:38;;;;;;;;;17.33;16.00;;;;;11.53;100.00;102457.31;6282801;22;46915;-88
2024/02/20 00:29:05;;;;;;;;;12.00;9.00;;;;;11.50;100.00;102455.44;6286440;22;45411;-88
2024/02/20 00:31:32;;;;;;;;;19.33;17.67;;;;;11.51;100.00;102475.00;6310796;22;45319;-87
2024/02/20 00:34:00;;;;;;;;;16.33;16.33;;;;;11.53;100.00;102470.63;6314578;22;45278;-88
2024/02/20 00:36:25;;;;;;;;;16.00;14.67;;;;;11.50;100.00;102478.53;6308634;22;47305;-88
2024/02/20 00:38:51;;;;;;;;;19.67;17.33;;;;;11.41;100.00;102472.00;6311389;22;45294;-87
2024/02/20 00:41:18;;;;;;;;;16.33;14.67;;;;;11.41;100.00;102469.34;6310980;22;45428;-86
2024/02/20 00:43:43;;;;;;;;;15.33;15.33;;;;;11.44;100.00;102480.97;6311064;22;45394;-88
2024/02/20 00:46:17;;;;;;;;;20.33;16.33;;;;;11.40;100.00;102486.16;6282731;22;47384;-89
2024/02/20 00:48:42;;;;;;;;;15.67;14.33;;;;;11.42;100.00;102496.88;6283011;22;45387;-88
2024/02/20 00:51:10;;;;;;;;;14.33;13.00;;;;;11.36;100.00;102481.56;6312145;22;45093;-88
2024/02/20 00:53:35;;;;;;;;;18.00;15.33;;;;;11.33;100.00;102476.13;6285193;22;45259;-87
2024/02/20 00:56:00;;;;;;;;;16.33;12.00;;;;;11.30;100.00;102462.69;6284985;22;47516;-88
2024/02/20 00:58:26;;;;;;;;;14.67;14.67;;;;;11.33;100.00;102457.47;6284670;22;45539;-87
2024/02/20 01:00:53;;;;;;;;;17.00;14.67;;;;;11.30;100.00;102449.38;6283766;22;45343;-86
2024/02/20 01:03:18;;;;;;;;;20.00;16.67;;;;;11.34;100.00;102474.38;6283628;22;45360;-86
2024/02/20 01:05:44;;;;;;;;;16.00;15.33;;;;;11.28;100.00;102466.13;6310795;22;45289;-86
2024/02/20 01:08:10;;;;;;;;;20.00;18.67;;;;;11.26;100.00;102478.50;6282044;22;45339;-87
2024/02/20 01:10:37;;;;;;;;;15.00;15.00;;;;;11.30;100.00;102480.44;6308349;22;45512;-86
2024/02/20 01:13:02;;;;;;;;;20.33;17.33;;;;;11.18;100.00;102460.44;6310507;22;45313;-87
2024/02/20 01:15:28;;;;;;;;;18.00;16.00;;;;;11.25;100.00;102466.94;6281460;22;47273;-85
2024/02/20 01:17:53;;;;;;;;;18.00;13.33;;;;;11.26;100.00;102463.41;6309545;22;45443;-87
2024/02/20 01:20:18;;;;;;;;;17.00;11.33;;;;;11.23;100.00;102465.97;6312274;22;45279;-87
2024/02/20 01:22:44;;;;;;;;;15.33;13.67;;;;;11.20;100.00;102464.06;6284614;22;45311;-87
2024/02/20 01:25:09;;;;;;;;;17.67;16.00;;;;;11.27;100.00;102482.94;6282434;22;46725;-88
2024/02/20 01:27:42;;;;;;;;;18.00;15.00;;;;;11.31;100.00;102472.50;6310657;22;45279;-87
2024/02/20 01:30:07;;;;;;;;;19.00;17.33;;;;;11.20;100.00;102463.16;6284122;22;45370;-87
2024/02/20 01:32:33;;;;;;;;;22.00;20.00;;;;;11.23;100.00;102468.63;6284192;22;45271;-87
2024/02/20 01:38:20;;;;;;;;;19.00;15.00;;;;;11.23;100.00;102479.28;6311358;22;45774;-88
2024/02/20 01:40:45;;;;;;;;;16.33;15.00;;;;;11.23;100.00;102483.69;6284123;22;45316;-86
2024/02/20 01:43:11;;;;;;;;;18.00;14.67;;;;;11.20;100.00;102480.06;6283370;22;44941;-87
2024/02/20 01:45:36;;;;;;;;;18.33;16.00;;;;;11.19;100.00;102474.69;6310503;22;45450;-87
2024/02/20 01:48:03;;;;;;;;;18.00;13.00;;;;;11.24;100.00;102470.44;6308947;22;45293;-85
2024/02/20 01:50:34;;;;;;;;;17.00;17.00;;;;;11.21;100.00;102462.34;6281162;22;45426;-87
2024/02/20 01:53:02;;;;;;;;;21.00;19.33;;;;;11.21;100.00;102478.31;6310776;22;45391;-87
2024/02/20 01:55:28;;;;;;;;;14.67;13.00;;;;;11.21;100.00;102480.97;6311749;22;45426;-87
2024/02/20 01:57:54;;;;;;;;;18.33;16.33;;;;;11.15;100.00;102471.00;6312205;22;45486;-89
2024/02/20 02:00:19;;;;;;;;;18.67;17.00;;;;;11.18;100.00;102480.84;6314822;22;45234;-81
2024/02/20 06:54:35;;;;;;;;;24.67;20.67;;;;;10.48;100.00;102466.47;6235563;22;46317;-84
2024/02/20 06:57:01;;;;;;;;;18.00;16.33;;;;;10.38;100.00;102467.84;6313206;22;45323;-84
2024/02/20 06:59:26;;;;;;;;;22.00;18.67;;;;;10.32;100.00;102459.63;6283719;22;44748;-85
2024/02/20 07:01:53;;;;;;;;;20.33;19.67;;;;;10.35;100.00;102464.16;6287993;22;45436;-83
2024/02/20 07:04:19;;;;;;;;;25.67;20.00;;;;;10.35;100.00;102456.16;6294043;22;47314;-84
2024/02/20 07:14:32;;;;;;;;;23.67;19.33;;;;;10.77;100.00;102483.66;6228195;22;46825;-82
2024/02/20 08:03:39;;;;;;;;;24.50;20.00;;;;;11.06;100.00;102470.63;6246021;22;45952;-83
2024/02/20 08:08:49;;;;;;;;;14.00;13.33;;;;;11.08;100.00;102460.94;6246603;22;45765;-83
2024/02/20 08:32:24;;;;;;;;;21.50;18.50;;;;;11.49;100.00;102493.63;6243170;22;45330;-81
2024/02/20 08:45:26;;;;;;;;;20.00;16.00;;;;;11.78;100.00;102486.72;6266640;22;45191;-84
2024/02/20 09:05:17;;;;;;;;;20.00;18.67;;;;;12.10;99.33;102483.41;6230159;22;45790;31
2024/02/20 09:26:47;;;;;;;;;21.67;16.00;;;;;12.36;96.66;102511.03;6262719;22;46517;-83
2024/02/20 09:32:46;;;;;;;;;33.33;23.67;;;;;12.33;95.98;102516.25;6136745;23;45461;-83
2024/02/20 09:35:50;;;;;;;;;16.00;16.00;;;;;12.46;95.26;102525.59;6101840;23;45372;-81
2024/02/20 09:38:23;;;;;;;;;14.33;12.33;;;;;12.36;94.95;102503.00;6067229;23;45378;-78
2024/02/20 09:40:51;;;;;;;;;16.00;12.33;;;;;12.14;94.17;102472.94;6043342;23;45668;-78
2024/02/20 09:43:18;;;;;;;;;16.67;13.67;;;;;12.17;93.76;102485.47;6068505;23;45416;-78
2024/02/20 09:45:44;;;;;;;;;17.00;15.00;;;;;12.51;92.97;102538.25;6073910;23;45317;-79
2024/02/20 09:48:10;;;;;;;;;17.67;16.33;;;;;12.48;92.54;102535.50;6046161;23;47508;-80
2024/02/20 09:51:01;;;;;;;;;15.00;14.33;;;;;12.43;92.22;102521.06;6050153;23;44818;-79
2024/02/20 09:54:00;;;;;;;;;12.00;11.67;;;;;12.33;92.13;102503.81;6068254;23;45477;-81
2024/02/20 09:56:26;;;;;;;;;16.67;16.67;;;;;12.49;91.73;102523.94;6056617;23;45520;-80
2024/02/20 09:58:52;;;;;;;;;16.33;13.00;;;;;12.41;91.61;102522.78;6072182;23;46303;-80
2024/02/20 10:02:00;;;;;;;;;18.33;14.33;;;;;12.64;91.42;102538.69;6102333;23;45254;-80
2024/02/20 10:08:13;;;;;;;;;16.67;12.00;;;;;12.64;90.63;102523.56;5930104;24;45377;-80
2024/02/20 10:10:41;;;;;;;;;14.33;14.33;;;;;12.54;90.16;102502.75;5910720;24;46601;-80
2024/02/20 10:13:07;;;;;;;;;12.33;12.33;;;;;12.56;89.39;102501.97;5904953;23;45346;-78
2024/02/20 10:16:01;;;;;;;;;13.00;11.00;;;;;12.67;88.24;102504.09;5932516;23;45367;-80
2024/02/20 10:23:39;;;;;;;;;10.33;10.33;;;;;12.78;87.90;102534.72;6264366;22;45246;-81
2024/02/20 10:44:15;;;;;;;;;19.00;17.67;;;;;12.54;85.89;102473.38;6279302;22;45343;-84
2024/02/20 10:46:48;;;;;;;;;16.33;15.00;;;;;12.70;85.87;102494.41;6275799;22;45377;-83
2024/02/20 11:39:37;;;;;;;;;13.67;12.33;;;;;12.94;82.80;102419.53;5909013;22;8269289;-85
2024/02/20 11:48:48;;;;;;;;;12.00;9.00;;;;;12.98;82.46;102466.84;6281922;22;46178;-82
2024/02/20 12:25:27;;;;;;;;;13.33;11.00;;;;;14.27;79.17;102423.34;6266576;22;46663;-82
2024/02/20 12:28:06;;;;;;;;;9.67;9.33;;;;;14.12;78.88;102384.63;6265924;22;46034;-82
2024/02/20 12:31:02;;;;;;;;;13.67;10.00;;;;;14.25;78.47;102387.59;6297212;22;45555;-83
2024/02/20 12:33:37;;;;;;;;;16.33;11.00;;;;;14.41;78.01;102381.75;6274744;22;44864;-85
2024/02/20 12:36:06;;;;;;;;;15.00;10.67;;;;;14.26;77.63;102347.50;6283406;22;47045;-86
2024/02/20 12:41:30;;;;;;;;;8.33;6.67;;;;;14.50;77.38;102363.25;6318209;22;45267;-86
2024/02/20 12:44:11;;;;;;;;;10.00;9.67;;;;;14.48;76.68;102350.69;6271422;22;45280;-86
2024/02/20 12:54:24;;;;;;;;;10.67;10.67;;;;;14.79;76.28;102389.84;6235777;22;45593;-84
2024/02/20 12:56:50;;;;;;;;;8.67;8.67;;;;;14.78;76.12;102374.63;6250354;22;45713;-84
2024/02/20 12:59:20;;;;;;;;;9.67;7.67;;;;;15.02;75.55;102386.78;6291362;22;45315;-85
2024/02/20 13:01:46;;;;;;;;;12.00;10.00;;;;;15.07;75.31;102374.38;6256692;22;46769;-85
2024/02/20 13:04:11;;;;;;;;;10.33;10.33;;;;;15.16;75.14;102386.19;6285699;22;45437;-84
2024/02/20 13:06:36;;;;;;;;;12.00;10.00;;;;;15.25;74.95;102388.19;6256857;22;45368;-85
2024/02/20 13:09:02;;;;;;;;;11.00;10.67;;;;;15.26;74.40;102364.97;6258140;22;45291;-86
2024/02/20 13:11:29;;;;;;;;;10.67;9.00;;;;;15.29;74.57;102343.56;6257897;22;46930;-86
2024/02/20 13:13:58;;;;;;;;;11.33;10.00;;;;;15.23;74.28;102322.94;6287380;22;45689;-85
2024/02/20 13:16:24;;;;;;;;;9.33;8.00;;;;;15.24;74.15;102327.41;6233381;22;45332;-84
2024/02/20 13:19:00;;;;;;;;;15.67;12.33;;;;;15.16;74.11;102292.41;6258920;22;44826;-85
2024/02/20 13:21:35;;;;;;;;;10.00;10.00;;;;;15.28;74.39;102310.50;6259509;22;47185;-84
2024/02/20 13:24:09;;;;;;;;;10.00;10.00;;;;;15.32;74.23;102293.59;6257225;22;45726;-85
2024/02/20 13:26:35;;;;;;;;;13.33;11.00;;;;;15.60;74.12;102320.94;6284009;22;44828;-85
2024/02/20 13:29:11;;;;;;;;;10.00;10.00;;;;;15.86;74.20;102317.88;6257395;22;45419;-85
2024/02/20 13:31:38;;;;;;;;;12.33;10.33;;;;;15.77;72.12;102270.31;6259050;22;46845;-85
2024/02/20 13:34:05;;;;;;;;;12.00;9.00;;;;;15.76;72.68;102296.25;6259842;22;45313;-84
2024/02/20 13:36:35;;;;;;;;;10.67;9.33;;;;;15.70;71.74;102293.41;6273337;22;45329;-85
2024/02/20 13:39:04;;;;;;;;;9.00;6.00;;;;;15.31;73.34;102265.00;6288689;22;45351;-85
2024/02/20 13:42:10;;;;;;;;;;;;;;;;;;;;;
2024/02/20 13:44:42;;;;;;;;;9.00;6.33;;;;;15.25;72.11;102286.34;6317593;22;45270;-84
2024/02/20 13:47:19;;;;;;;;;9.00;9.00;;;;;15.18;73.31;102277.25;6318064;22;45304;-84
2024/02/20 13:49:45;;;;;;;;;9.00;8.00;;;;;15.08;72.00;102250.25;6294067;22;44825;-85
2024/02/20 13:52:11;;;;;;;;;10.00;10.00;;;;;14.89;72.74;102238.28;6294072;22;46691;-84
2024/02/20 13:54:36;;;;;;;;;9.67;9.33;;;;;15.12;72.75;102277.13;6298125;22;44836;-85
2024/02/20 13:57:03;;;;;;;;;10.67;9.33;;;;;15.08;73.22;102266.31;6329325;22;44878;-84
2024/02/20 14:02:08;;;;;;;;;9.00;9.00;;;;;15.24;73.00;102265.75;6275624;22;46972;-85
2024/02/20 14:07:19;;;;;;;;;9.00;9.00;;;;;15.42;72.24;102262.53;6285000;22;44823;-84
2024/02/20 14:09:46;;;;;;;;;6.67;6.67;;;;;15.31;72.13;102269.44;6285967;22;45352;-85
2024/02/20 14:12:14;;;;;;;;;7.67;5.33;;;;;15.23;71.70;102245.19;6257626;22;47309;-85
2024/02/20 14:14:39;;;;;;;;;7.33;6.00;;;;;15.14;70.81;102234.28;6285017;22;45320;-84
2024/02/20 14:20:34;;;;;;;;;10.00;9.00;;;;;15.27;70.65;102254.19;6266913;22;46244;-84
2024/02/20 14:23:04;;;;;;;;;9.00;6.00;;;;;15.18;72.14;102254.91;6256609;22;46815;-86
2024/02/20 14:25:30;;;;;;;;;8.33;7.00;;;;;15.29;71.94;102266.75;6255961;22;45334;-84
2024/02/20 14:27:57;;;;;;;;;10.50;9.00;;;;;15.10;72.08;102227.06;6259205;22;44761;-84
2024/02/20 14:30:23;;;;;;;;;11.00;6.67;;;;;15.18;71.98;102212.03;6257398;22;45312;-85
2024/02/20 14:32:48;;;;;;;;;9.67;7.33;;;;;15.35;70.75;102237.38;6258038;22;47327;-83
2024/02/20 14:35:18;;;;;;;;;8.67;8.67;;;;;15.33;70.04;102220.38;6256221;22;45136;-84
2024/02/20 14:37:56;;;;;;;;;8.00;8.00;;;;;15.37;70.30;102227.59;6255740;22;45407;-84
2024/02/20 14:40:23;;;;;;;;;10.33;10.33;;;;;15.36;70.42;102227.56;6256315;22;45610;-85
2024/02/20 14:42:50;;;;;;;;;12.00;10.00;;;;;15.40;70.45;102238.34;6279201;22;47317;-84
2024/02/20 14:45:18;;;;;;;;;6.67;6.67;;;;;15.48;70.02;102251.00;6257012;22;44857;-84
2024/02/20 14:47:49;;;;;;;;;6.67;6.67;;;;;15.21;70.45;102214.78;6283895;22;45295;-84
2024/02/20 14:50:30;;;;;;;;;;;;;;;;;;;;;
2024/02/20 14:52:58;;;;;;;;;13.00;12.00;;;;;15.17;70.88;102196.84;6283957;22;75247;-84
2024/02/20 14:55:31;;;;;;;;;9.67;8.00;;;;;15.24;70.23;102177.31;6257659;22;45307;-85
2024/02/20 14:57:59;;;;;;;;;12.33;9.33;;;;;15.12;70.34;102172.63;6256892;22;45335;-86
2024/02/20 15:00:35;;;;;;;;;10.67;7.33;;;;;15.26;70.91;102170.19;6258252;22;45194;-84
2024/02/20 15:03:16;;;;;;;;;7.67;7.67;;;;;15.50;70.70;102198.31;6262510;22;45229;-85
2024/02/20 15:05:57;;;;;;;;;12.00;9.00;;;;;15.46;70.69;102192.00;6260793;22;45125;-85
2024/02/20 15:08:24;;;;;;;;;12.67;12.67;;;;;15.34;70.59;102192.66;6284706;22;45356;-86
2024/02/20 15:10:55;;;;;;;;;10.00;9.00;;;;;15.37;70.71;102179.34;6284478;22;44827;-85
2024/02/20 15:13:20;;;;;;;;;11.33;11.00;;;;;15.43;70.94;102178.56;6254234;22;46362;-86
2024/02/20 15:16:30;;;;;;;;;8.67;8.67;;;;;15.66;70.71;102195.00;6281433;22;45382;-85
2024/02/20 15:18:55;;;;;;;;;10.33;8.33;;;;;15.38;70.55;102182.91;6283588;22;45477;-84
2024/02/20 15:21:22;;;;;;;;;9.67;6.00;;;;;15.28;69.75;102173.81;6314825;22;45739;-84
2024/02/20 15:23:48;;;;;;;;;8.00;8.00;;;;;15.13;70.53;102189.63;6313243;22;47953;-84
2024/02/20 15:26:13;;;;;;;;;11.67;10.00;;;;;14.96;70.56;102174.09;6289063;22;44894;-84
2024/02/20 15:28:39;;;;;;;;;7.00;5.00;;;;;14.78;70.78;102163.97;6288286;22;45158;-83
2024/02/20 15:31:05;;;;;;;;;12.00;10.00;;;;;14.57;71.20;102155.50;6312945;22;45398;-84
2024/02/20 15:33:33;;;;;;;;;9.67;8.33;;;;;14.38;71.40;102156.84;6312730;22;45529;-85
2024/02/20 15:39:21;;;;;;;;;13.00;10.00;;;;;14.18;72.77;102152.00;6315568;22;45515;-85
2024/02/20 15:41:46;;;;;;;;;8.67;6.00;;;;;14.07;72.96;102149.94;6291960;22;44848;-84
2024/02/20 15:44:11;;;;;;;;;9.00;6.00;;;;;14.02;73.09;102144.50;6319700;22;45113;-85
2024/02/20 15:46:37;;;;;;;;;6.33;6.33;;;;;13.92;73.09;102145.16;6290634;22;44835;-84
2024/02/20 15:49:02;;;;;;;;;7.33;7.33;;;;;13.91;73.37;102152.25;6319607;22;45348;-83
2024/02/20 15:51:32;;;;;;;;;12.00;8.00;;;;;13.89;73.81;102147.75;6291355;22;45488;-84
2024/02/20 15:57:19;;;;;;;;;10.00;7.67;;;;;13.91;73.92;102136.22;6319887;22;44778;-84
2024/02/20 15:59:44;;;;;;;;;7.67;6.00;;;;;13.90;74.27;102141.53;6321226;22;45163;-84
2024/02/20 16:02:10;;;;;;;;;5.00;5.00;;;;;13.97;74.04;102144.38;6271666;22;46050;-84
2024/02/20 16:04:35;;;;;;;;;10.33;6.33;;;;;14.03;73.96;102146.28;6254794;22;47207;-85
2024/02/20 16:07:01;;;;;;;;;6.00;6.00;;;;;13.96;73.91;102141.69;6255521;22;45276;-85
2024/02/20 16:09:26;;;;;;;;;7.33;7.33;;;;;13.98;74.38;102156.00;6282093;22;45357;-84
2024/02/20 16:11:51;;;;;;;;;8.33;6.00;;;;;13.98;73.79;102153.31;6280484;22;44820;-84
2024/02/20 16:14:17;;;;;;;;;4.00;4.00;;;;;13.89;73.92;102143.28;6282010;22;47138;-84
2024/02/20 16:16:42;;;;;;;;;8.67;6.00;;;;;13.89;74.07;102153.09;6281157;22;45315;-83
2024/02/20 16:19:09;;;;;;;;;5.33;5.33;;;;;13.83;73.75;102145.81;6253496;22;45318;-85
2024/02/20 16:21:35;;;;;;;;;6.00;5.33;;;;;13.75;73.32;102145.63;6262008;22;45545;-84
2024/02/20 16:24:02;;;;;;;;;4.00;4.00;;;;;13.69;73.48;102145.50;6257581;22;48241;-82
2024/02/20 16:26:31;;;;;;;;;11.00;6.67;;;;;13.73;73.65;102147.38;6259933;22;45414;-83
2024/02/20 16:28:57;;;;;;;;;4.00;1.33;;;;;13.60;73.33;102154.22;6230830;22;44735;-86
2024/02/20 16:31:24;;;;;;;;;6.33;6.33;;;;;13.58;73.64;102141.69;6255999;22;45361;-86
2024/02/20 16:33:50;;;;;;;;;5.00;5.00;;;;;13.43;73.74;102136.84;6260482;22;48353;-84
2024/02/20 16:36:16;;;;;;;;;10.33;8.33;;;;;13.39;74.07;102134.97;6255960;22;45071;-85
2024/02/20 16:38:46;;;;;;;;;7.67;6.67;;;;;13.38;74.24;102131.41;6287336;22;45333;-86
2024/02/20 16:41:12;;;;;;;;;5.00;4.67;;;;;13.29;74.58;102128.50;6263117;22;45284;-84
2024/02/20 16:43:37;;;;;;;;;9.00;6.00;;;;;13.15;74.75;102113.88;6257428;22;47125;-85
2024/02/20 16:46:04;;;;;;;;;12.00;12.00;;;;;13.20;75.14;102129.13;6256753;22;44845;-86
2024/02/20 16:48:29;;;;;;;;;8.67;7.00;;;;;13.11;75.16;102125.31;6257364;22;45421;-84
2024/02/20 16:50:55;;;;;;;;;6.33;6.33;;;;;13.08;75.57;102125.25;6285189;22;45328;-83
2024/02/20 16:53:20;;;;;;;;;2.00;2.00;;;;;12.98;75.84;102113.41;6256266;22;47095;-84
2024/02/20 16:55:46;;;;;;;;;10.33;5.67;;;;;12.93;75.94;102115.09;6255750;22;46036;-85
2024/02/20 16:58:11;;;;;;;;;10.67;9.67;;;;;12.93;76.58;102124.00;6287316;22;45345;-84
2024/02/20 17:00:38;;;;;;;;;9.33;5.67;;;;;12.98;76.79;102122.31;6289501;22;45379;-84
2024/02/20 17:03:05;;;;;;;;;13.00;7.67;;;;;12.88;76.92;102109.59;6284146;22;47367;-84
2024/02/20 17:05:31;;;;;;;;;9.00;8.33;;;;;12.79;77.24;102104.03;6287280;22;45332;-83
2024/02/20 17:07:57;;;;;;;;;8.00;8.00;;;;;12.76;77.28;102109.28;6284540;22;45280;-85
2024/02/20 17:10:26;;;;;;;;;10.00;8.67;;;;;12.79;77.39;102117.38;6283577;22;45271;-84
2024/02/20 17:12:52;;;;;;;;;8.67;7.67;;;;;12.64;77.72;102128.50;6283855;22;45568;-84
2024/02/20 17:15:17;;;;;;;;;12.33;11.00;;;;;12.61;77.92;102121.34;6255610;22;45352;-84
2024/02/20 17:17:43;;;;;;;;;8.00;7.33;;;;;12.54;77.98;102111.38;6285458;22;45367;-85
2024/02/20 17:20:12;;;;;;;;;8.33;8.33;;;;;12.50;78.18;102117.50;6256673;22;45606;-85
2024/02/20 17:22:38;;;;;;;;;11.67;10.67;;;;;12.51;78.33;102121.06;6252549;22;47201;-85
2024/02/20 17:25:05;;;;;;;;;10.00;8.67;;;;;12.48;78.28;102124.53;6280047;22;45315;-84
2024/02/20 17:27:30;;;;;;;;;15.00;11.33;;;;;12.39;78.56;102119.81;6252981;22;45432;-84
2024/02/20 17:29:58;;;;;;;;;10.00;8.00;;;;;12.33;78.63;102118.75;6257311;22;45410;-83
2024/02/20 17:32:23;;;;;;;;;12.67;10.33;;;;;12.34;78.72;102120.53;6258598;22;45336;-84
2024/02/20 17:34:49;;;;;;;;;13.33;10.67;;;;;12.32;78.88;102133.88;6252496;22;45365;-84
2024/02/20 17:37:14;;;;;;;;;7.00;7.00;;;;;12.28;79.00;102145.31;6280311;22;45363;-84
2024/02/20 17:39:39;;;;;;;;;10.33;7.33;;;;;12.24;79.14;102142.47;6280756;22;45285;-84
2024/02/20 17:42:05;;;;;;;;;10.00;10.00;;;;;12.16;79.32;102140.50;6277690;22;47925;-84
2024/02/20 17:44:30;;;;;;;;;10.33;10.33;;;;;12.14;79.33;102133.28;6278307;22;44746;-85
2024/02/20 17:46:56;;;;;;;;;10.67;10.67;;;;;12.13;79.73;102139.50;6277960;22;45419;-84
2024/02/20 17:49:59;;;;;;;;;9.33;8.00;;;;;12.16;79.62;102135.16;6280232;22;44902;-84
2024/02/20 17:52:24;;;;;;;;;11.33;10.33;;;;;12.05;79.69;102139.25;6281203;22;46229;-84
2024/02/20 17:54:50;;;;;;;;;13.67;13.33;;;;;12.02;79.89;102152.53;6282642;22;45258;-84
2024/02/20 17:57:17;;;;;;;;;10.33;10.33;;;;;11.98;79.98;102147.94;6280088;22;45241;-84
2024/02/20 17:59:43;;;;;;;;;10.00;10.00;;;;;11.98;79.80;102155.94;6279961;22;45299;-84
2024/02/20 18:02:08;;;;;;;;;11.00;9.67;;;;;11.95;80.06;102150.50;6267628;22;48286;-84
2024/02/20 18:04:35;;;;;;;;;14.67;10.33;;;;;11.94;80.19;102143.38;6307195;22;45821;-85
2024/02/20 18:07:07;;;;;;;;;10.33;9.67;;;;;11.90;80.10;102138.81;6282968;22;44971;-85
2024/02/20 18:09:34;;;;;;;;;15.33;12.67;;;;;11.89;80.18;102153.88;6283923;22;45336;-86
2024/02/20 18:11:59;;;;;;;;;14.00;14.00;;;;;11.85;80.50;102153.72;6312208;22;45425;-85
2024/02/20 18:14:25;;;;;;;;;15.00;14.00;;;;;11.86;80.53;102145.75;6307020;22;45873;-85
2024/02/20 18:16:51;;;;;;;;;14.67;10.33;;;;;11.81;80.63;102147.38;6308323;22;45462;-85
2024/02/20 18:19:17;;;;;;;;;19.00;15.33;;;;;11.80;80.59;102153.56;6281051;22;45468;-85
2024/02/20 18:21:42;;;;;;;;;13.00;12.00;;;;;11.78;80.60;102155.28;6309383;22;47141;-85
2024/02/20 18:24:08;;;;;;;;;14.33;12.00;;;;;11.84;80.71;102165.25;6312642;22;45277;-85
2024/02/20 18:29:55;;;;;;;;;20.33;17.00;;;;;11.80;80.86;102154.47;6311084;22;45330;-85
2024/02/20 18:32:21;;;;;;;;;22.33;20.67;;;;;11.81;80.89;102153.63;6313666;22;47165;-85
2024/02/20 18:34:47;;;;;;;;;17.00;15.00;;;;;11.75;80.97;102171.16;6310534;22;46070;-86
2024/02/20 18:37:19;;;;;;;;;12.00;12.00;;;;;11.84;81.02;102176.81;6283734;22;45364;-85
2024/02/20 18:39:46;;;;;;;;;15.67;13.67;;;;;11.70;81.03;102160.38;6315587;22;45379;-85
2024/02/20 18:42:17;;;;;;;;;13.33;11.00;;;;;11.85;81.36;102161.72;6307914;22;47584;-85
2024/02/20 18:44:42;;;;;;;;;17.00;12.33;;;;;11.75;81.20;102150.75;6310368;22;45375;-85
2024/02/20 18:47:08;;;;;;;;;15.00;13.67;;;;;11.69;81.11;102139.88;6311513;22;45320;-85
2024/02/20 18:49:34;;;;;;;;;16.00;15.67;;;;;11.73;81.21;102146.22;6281968;22;45238;-85
2024/02/20 18:51:59;;;;;;;;;20.00;15.67;;;;;11.73;81.42;102149.78;6283721;22;47418;-85
2024/02/20 18:54:24;;;;;;;;;17.33;15.33;;;;;11.72;81.37;102149.75;6313143;22;45312;-85
2024/02/20 18:56:50;;;;;;;;;15.00;14.67;;;;;11.73;81.55;102147.13;6311888;22;45470;-85
2024/02/20 18:59:15;;;;;;;;;14.00;11.33;;;;;11.72;81.78;102155.09;6312676;22;45404;-85
2024/02/20 19:01:40;;;;;;;;;12.00;12.00;;;;;11.78;81.75;102139.28;6312058;22;45412;-85
2024/02/20 19:04:06;;;;;;;;;14.33;11.00;;;;;11.82;81.64;102151.88;6315126;22;45297;-85
2024/02/20 19:06:32;;;;;;;;;13.33;10.67;;;;;11.87;81.72;102147.56;6282765;22;45435;-86
2024/02/20 19:08:57;;;;;;;;;15.33;15.00;;;;;11.85;81.85;102151.94;6283156;22;45382;-84
2024/02/20 19:11:24;;;;;;;;;15.67;15.00;;;;;11.83;82.00;102148.31;6311793;22;45437;-83
2024/02/20 19:13:50;;;;;;;;;14.33;12.67;;;;;11.81;81.97;102142.97;6312057;22;45247;-84
2024/02/20 19:16:16;;;;;;;;;11.00;10.67;;;;;11.78;82.02;102129.53;6282816;22;45668;-84
2024/02/20 19:18:42;;;;;;;;;12.00;11.00;;;;;11.81;82.29;102131.38;6285371;22;45562;-85
2024/02/20 19:21:09;;;;;;;;;15.33;11.67;;;;;11.79;82.41;102125.09;6310460;22;46885;-84
2024/02/20 19:23:34;;;;;;;;;19.67;16.00;;;;;11.75;82.35;102126.75;6282877;22;45458;-84
2024/02/20 19:26:00;;;;;;;;;11.67;11.67;;;;;11.68;82.62;102118.53;6285051;22;45429;-84
2024/02/20 19:28:25;;;;;;;;;18.33;15.00;;;;;11.72;82.64;102110.69;6310721;22;45282;-84
2024/02/20 19:30:51;;;;;;;;;13.67;11.33;;;;;11.69;82.53;102118.56;6282610;22;46850;-84
2024/02/20 19:33:16;;;;;;;;;12.00;10.67;;;;;11.74;82.72;102127.63;6284097;22;45792;-84
2024/02/20 19:35:41;;;;;;;;;15.00;14.00;;;;;11.75;82.66;102118.75;6284873;22;45399;-84
2024/02/20 19:38:08;;;;;;;;;17.33;16.00;;;;;11.74;82.82;102116.06;6308819;22;44955;-83
2024/02/20 19:40:37;;;;;;;;;19.00;16.00;;;;;11.74;82.77;102121.41;6284468;22;47057;-84
2024/02/20 19:43:03;;;;;;;;;16.00;15.00;;;;;11.75;83.06;102118.75;6309267;22;45339;-84
2024/02/20 19:45:28;;;;;;;;;19.67;16.00;;;;;11.75;83.19;102113.41;6284799;22;45335;-84
2024/02/20 19:47:54;;;;;;;;;22.67;16.00;;;;;11.73;82.93;102115.13;6310033;22;45309;-84
2024/02/20 19:50:19;;;;;;;;;16.33;16.33;;;;;11.73;82.95;102109.81;6281833;22;46599;-84
2024/02/20 19:52:45;;;;;;;;;24.67;22.00;;;;;11.78;82.86;102123.31;6284139;22;45521;-84
2024/02/20 19:55:14;;;;;;;;;20.00;20.00;;;;;11.78;83.12;102132.19;6311168;22;45287;-83
2024/02/20 19:57:40;;;;;;;;;22.33;19.00;;;;;11.68;83.31;102116.78;6282740;22;44895;-83
2024/02/20 20:00:06;;;;;;;;;16.33;15.67;;;;;11.77;83.10;102130.38;6310953;22;45301;-84
2024/02/20 20:02:31;;;;;;;;;17.00;17.00;;;;;11.76;83.18;102135.69;6275829;22;45678;-85
2024/02/20 20:04:57;;;;;;;;;16.67;15.00;;;;;11.76;83.12;102120.59;6281532;22;44711;-84
2024/02/20 20:07:23;;;;;;;;;15.67;14.67;;;;;11.78;83.15;102117.97;6253783;22;45490;-84
2024/02/20 20:09:48;;;;;;;;;18.00;16.00;;;;;11.76;83.05;102123.25;6253896;22;47374;-85
2024/02/20 20:12:14;;;;;;;;;18.67;15.67;;;;;11.77;83.26;102130.38;6254046;22;44903;-84
2024/02/20 20:14:39;;;;;;;;;15.00;11.33;;;;;11.73;83.17;102125.81;6254285;22;45447;-84
2024/02/20 20:17:05;;;;;;;;;14.00;12.00;;;;;11.82;83.18;102135.88;6282007;22;45394;-84
2024/02/20 20:19:32;;;;;;;;;12.33;10.00;;;;;11.88;83.08;102135.16;6252353;22;47065;-84
2024/02/20 20:21:59;;;;;;;;;15.33;15.00;;;;;11.84;83.19;102127.94;6253314;22;45384;-84
2024/02/20 20:24:24;;;;;;;;;13.00;12.00;;;;;11.77;83.31;102121.47;6254619;22;45253;-85
2024/02/20 20:26:49;;;;;;;;;13.67;12.33;;;;;11.86;83.25;102128.88;6261778;22;50117;-88
2024/02/20 20:29:15;;;;;;;;;11.00;11.00;;;;;11.77;83.37;102117.03;6263424;22;49056;-88
2024/02/20 20:31:41;;;;;;;;;11.67;9.33;;;;;11.73;83.34;102115.13;6236214;22;44834;-86
2024/02/20 20:34:07;;;;;;;;;11.67;11.67;;;;;11.67;83.50;102098.97;6285527;22;44809;-87
2024/02/20 20:36:34;;;;;;;;;14.33;12.67;;;;;11.64;83.52;102101.53;6290812;22;44764;-87
2024/02/20 20:39:00;;;;;;;;;10.33;10.00;;;;;11.60;83.61;102089.88;6262429;22;47230;-87
2024/02/20 20:41:27;;;;;;;;;8.67;8.00;;;;;11.60;83.71;102097.88;6261843;22;45199;-86
2024/02/20 20:43:52;;;;;;;;;15.33;13.33;;;;;11.58;83.52;102088.03;6291569;22;44810;-87
2024/02/20 20:46:18;;;;;;;;;15.00;15.00;;;;;11.59;83.97;102096.06;6291950;22;44917;-86
2024/02/20 20:48:44;;;;;;;;;14.00;13.00;;;;;11.66;83.59;102091.84;6293499;22;47015;-88
2024/02/20 20:51:09;;;;;;;;;15.33;15.33;;;;;11.59;84.07;102096.06;6265362;22;45064;-85